sensor_id;sensor_type;location;lat;lon;timestamp;pressure;altitude;pressure_sealevel;temperature;humidity
72096;BME280;59968;51.084;16.748;2023-04-15T00:01:16;98900.78;;;11.14;90.17
72096;BME280;59968;51.084;16.748;2023-04-15T00:03:49;98902.52;;;11.13;90.30
72096;BME280;59968;51.084;16.748;2023-04-15T00:06:18;98899.02;;;11.12;90.41
72096;BME280;59968;51.084;16.748;2023-04-15T00:08:49;98896.98;;;11.16;90.35
72096;BME280;59968;51.084;16.748;2023-04-15T00:11:17;98895.21;;;11.17;90.29
72096;BME280;59968;51.084;16.748;2023-04-15T00:13:47;98887.56;;;11.19;90.24
72096;BME280;59968;51.084;16.748;2023-04-15T00:16:15;98883.95;;;11.20;90.28
72096;BME280;59968;51.084;16.748;2023-04-15T00:18:44;98885.86;;;11.22;90.23
72096;BME280;59968;51.084;16.748;2023-04-15T00:21:13;98884.24;;;11.24;90.28
72096;BME280;59968;51.084;16.748;2023-04-15T00:23:41;98884.15;;;11.27;90.27
72096;BME280;59968;51.084;16.748;2023-04-15T00:26:09;98884.30;;;11.29;90.21
72096;BME280;59968;51.084;16.748;2023-04-15T00:28:38;98886.20;;;11.33;90.11
72096;BME280;59968;51.084;16.748;2023-04-15T00:31:06;98888.27;;;11.32;90.12
72096;BME280;59968;51.084;16.748;2023-04-15T00:33:34;98887.41;;;11.36;90.11
72096;BME280;59968;51.084;16.748;2023-04-15T00:36:06;98890.77;;;11.38;90.05
72096;BME280;59968;51.084;16.748;2023-04-15T00:38:37;98881.31;;;11.37;90.06
72096;BME280;59968;51.084;16.748;2023-04-15T00:41:05;98878.95;;;11.40;90.06
72096;BME280;59968;51.084;16.748;2023-04-15T00:43:34;98880.59;;;11.42;89.88
72096;BME280;59968;51.084;16.748;2023-04-15T00:46:04;98877.82;;;11.44;89.87
72096;BME280;59968;51.084;16.748;2023-04-15T00:48:34;98881.41;;;11.47;89.81
72096;BME280;59968;51.084;16.748;2023-04-15T00:51:03;98884.55;;;11.50;89.79
72096;BME280;59968;51.084;16.748;2023-04-15T00:53:32;98883.18;;;11.52;89.59
72096;BME280;59968;51.084;16.748;2023-04-15T00:56:00;98886.77;;;11.55;89.48
72096;BME280;59968;51.084;16.748;2023-04-15T00:58:29;98883.20;;;11.56;89.38
72096;BME280;59968;51.084;16.748;2023-04-15T01:00:57;98883.55;;;11.57;89.29
72096;BME280;59968;51.084;16.748;2023-04-15T01:03:28;98885.70;;;11.61;89.11
72096;BME280;59968;51.084;16.748;2023-04-15T01:05:58;98890.11;;;11.64;88.98
72096;BME280;59968;51.084;16.748;2023-04-15T01:08:31;98886.66;;;11.66;88.82
72096;BME280;59968;51.084;16.748;2023-04-15T01:11:00;98886.52;;;11.68;88.64
72096;BME280;59968;51.084;16.748;2023-04-15T01:13:32;98882.52;;;11.69;88.47
72096;BME280;59968;51.084;16.748;2023-04-15T01:16:01;98882.40;;;11.72;88.26
72096;BME280;59968;51.084;16.748;2023-04-15T01:18:30;98883.23;;;11.72;88.14
72096;BME280;59968;51.084;16.748;2023-04-15T01:21:00;98882.80;;;11.73;87.99
72096;BME280;59968;51.084;16.748;2023-04-15T01:23:34;98889.81;;;11.74;87.92
72096;BME280;59968;51.084;16.748;2023-04-15T01:26:05;98887.48;;;11.74;87.82
72096;BME280;59968;51.084;16.748;2023-04-15T01:28:36;98885.55;;;11.76;87.65
72096;BME280;59968;51.084;16.748;2023-04-15T01:31:10;98882.14;;;11.77;87.57
72096;BME280;59968;51.084;16.748;2023-04-15T01:33:41;98875.18;;;11.77;87.40
72096;BME280;59968;51.084;16.748;2023-04-15T01:36:09;98879.02;;;11.78;87.34
72096;BME280;59968;51.084;16.748;2023-04-15T01:38:38;98879.16;;;11.78;87.23
72096;BME280;59968;51.084;16.748;2023-04-15T01:41:06;98881.85;;;11.77;87.10
72096;BME280;59968;51.084;16.748;2023-04-15T01:43:35;98883.42;;;11.79;87.09
72096;BME280;59968;51.084;16.748;2023-04-15T01:46:09;98889.74;;;11.80;86.98
72096;BME280;59968;51.084;16.748;2023-04-15T01:48:37;98889.33;;;11.81;86.94
72096;BME280;59968;51.084;16.748;2023-04-15T01:51:06;98897.40;;;11.81;86.84
72096;BME280;59968;51.084;16.748;2023-04-15T01:53:35;98896.17;;;11.82;86.63
72096;BME280;59968;51.084;16.748;2023-04-15T01:56:04;98895.77;;;11.84;86.58
72096;BME280;59968;51.084;16.748;2023-04-15T01:58:34;98900.08;;;11.85;86.51
72096;BME280;59968;51.084;16.748;2023-04-15T02:01:03;98898.73;;;11.86;86.43
72096;BME280;59968;51.084;16.748;2023-04-15T02:03:31;98896.96;;;11.87;86.28
72096;BME280;59968;51.084;16.748;2023-04-15T02:06:00;98898.37;;;11.88;86.31
72096;BME280;59968;51.084;16.748;2023-04-15T02:08:29;98894.86;;;11.88;86.17
72096;BME280;59968;51.084;16.748;2023-04-15T02:10:58;98897.75;;;11.89;86.16
72096;BME280;59968;51.084;16.748;2023-04-15T02:13:29;98892.36;;;11.89;86.09
72096;BME280;59968;51.084;16.748;2023-04-15T02:15:57;98893.55;;;11.89;86.01
72096;BME280;59968;51.084;16.748;2023-04-15T02:18:26;98903.42;;;11.89;86.03
72096;BME280;59968;51.084;16.748;2023-04-15T02:20:55;98901.02;;;11.90;85.91
72096;BME280;59968;51.084;16.748;2023-04-15T02:23:26;98902.94;;;11.90;85.89
72096;BME280;59968;51.084;16.748;2023-04-15T02:25:54;98898.21;;;11.91;85.83
72096;BME280;59968;51.084;16.748;2023-04-15T02:28:22;98896.95;;;11.91;85.95
72096;BME280;59968;51.084;16.748;2023-04-15T02:30:51;98901.03;;;11.91;85.94
72096;BME280;59968;51.084;16.748;2023-04-15T02:33:20;98901.89;;;11.90;85.78
72096;BME280;59968;51.084;16.748;2023-04-15T02:35:49;98908.23;;;11.91;85.71
72096;BME280;59968;51.084;16.748;2023-04-15T02:38:18;98916.67;;;11.92;85.65
72096;BME280;59968;51.084;16.748;2023-04-15T02:40:47;98904.45;;;11.87;85.82
72096;BME280;59968;51.084;16.748;2023-04-15T02:43:17;98904.02;;;11.88;85.77
72096;BME280;59968;51.084;16.748;2023-04-15T02:45:46;98906.81;;;11.92;85.81
72096;BME280;59968;51.084;16.748;2023-04-15T02:48:14;98909.73;;;11.93;85.79
72096;BME280;59968;51.084;16.748;2023-04-15T02:50:47;98910.71;;;11.95;85.77
72096;BME280;59968;51.084;16.748;2023-04-15T02:53:16;98909.00;;;11.96;85.79
72096;BME280;59968;51.084;16.748;2023-04-15T02:55:44;98910.80;;;11.94;85.64
72096;BME280;59968;51.084;16.748;2023-04-15T02:58:13;98912.38;;;11.95;85.62
72096;BME280;59968;51.084;16.748;2023-04-15T03:00:44;98911.43;;;11.95;85.46
72096;BME280;59968;51.084;16.748;2023-04-15T03:03:13;98909.91;;;11.94;85.36
72096;BME280;59968;51.084;16.748;2023-04-15T03:05:43;98916.95;;;11.92;85.32
72096;BME280;59968;51.084;16.748;2023-04-15T03:08:12;98918.04;;;11.92;85.28
72096;BME280;59968;51.084;16.748;2023-04-15T03:10:44;98923.67;;;11.91;85.26
72096;BME280;59968;51.084;16.748;2023-04-15T03:13:12;98919.65;;;11.90;85.24
72096;BME280;59968;51.084;16.748;2023-04-15T03:15:45;98921.77;;;11.89;85.32
72096;BME280;59968;51.084;16.748;2023-04-15T03:18:14;98927.30;;;11.90;85.25
72096;BME280;59968;51.084;16.748;2023-04-15T03:21:00;98932.13;;;11.90;85.06
72096;BME280;59968;51.084;16.748;2023-04-15T03:23:30;98934.75;;;11.86;84.88
72096;BME280;59968;51.084;16.748;2023-04-15T03:26:03;98942.43;;;11.83;84.78
72096;BME280;59968;51.084;16.748;2023-04-15T03:28:33;98949.38;;;11.82;84.66
72096;BME280;59968;51.084;16.748;2023-04-15T03:31:01;98951.23;;;11.79;84.58
72096;BME280;59968;51.084;16.748;2023-04-15T03:33:30;98955.10;;;11.77;84.44
72096;BME280;59968;51.084;16.748;2023-04-15T03:35:59;98951.71;;;11.75;84.28
72096;BME280;59968;51.084;16.748;2023-04-15T03:38:27;98948.41;;;11.71;84.01
72096;BME280;59968;51.084;16.748;2023-04-15T03:40:55;98955.17;;;11.67;83.82
72096;BME280;59968;51.084;16.748;2023-04-15T03:43:24;98961.92;;;11.63;83.67
72096;BME280;59968;51.084;16.748;2023-04-15T03:45:53;98966.00;;;11.59;83.47
72096;BME280;59968;51.084;16.748;2023-04-15T03:48:21;98969.21;;;11.54;83.28
72096;BME280;59968;51.084;16.748;2023-04-15T03:50:49;98974.46;;;11.47;82.71
72096;BME280;59968;51.084;16.748;2023-04-15T03:53:17;98982.14;;;11.38;82.27
72096;BME280;59968;51.084;16.748;2023-04-15T03:55:46;98992.23;;;11.29;82.05
72096;BME280;59968;51.084;16.748;2023-04-15T03:58:15;98998.93;;;11.18;81.86
72096;BME280;59968;51.084;16.748;2023-04-15T04:00:43;99001.23;;;11.08;81.83
72096;BME280;59968;51.084;16.748;2023-04-15T04:03:12;99007.73;;;11.00;82.01
72096;BME280;59968;51.084;16.748;2023-04-15T04:05:41;99013.31;;;10.94;82.04
72096;BME280;59968;51.084;16.748;2023-04-15T04:08:11;99012.88;;;10.88;82.24
72096;BME280;59968;51.084;16.748;2023-04-15T04:10:41;99016.16;;;10.84;82.45
72096;BME280;59968;51.084;16.748;2023-04-15T04:13:10;99014.84;;;10.81;82.60
72096;BME280;59968;51.084;16.748;2023-04-15T04:15:38;99020.28;;;10.81;82.65
72096;BME280;59968;51.084;16.748;2023-04-15T04:18:07;99026.34;;;10.81;82.45
72096;BME280;59968;51.084;16.748;2023-04-15T04:20:35;99022.60;;;10.80;82.47
72096;BME280;59968;51.084;16.748;2023-04-15T04:23:04;99016.35;;;10.79;82.24
72096;BME280;59968;51.084;16.748;2023-04-15T04:25:33;99027.39;;;10.79;82.14
72096;BME280;59968;51.084;16.748;2023-04-15T04:28:02;99034.29;;;10.77;81.95
72096;BME280;59968;51.084;16.748;2023-04-15T04:30:30;99032.41;;;10.75;81.61
72096;BME280;59968;51.084;16.748;2023-04-15T04:32:59;99039.23;;;10.72;81.22
72096;BME280;59968;51.084;16.748;2023-04-15T04:35:28;99034.13;;;10.65;80.80
72096;BME280;59968;51.084;16.748;2023-04-15T04:37:56;99035.36;;;10.57;80.68
72096;BME280;59968;51.084;16.748;2023-04-15T04:40:25;99035.40;;;10.51;80.63
72096;BME280;59968;51.084;16.748;2023-04-15T04:42:54;99040.73;;;10.46;80.40
72096;BME280;59968;51.084;16.748;2023-04-15T04:45:23;99046.58;;;10.40;80.24
72096;BME280;59968;51.084;16.748;2023-04-15T04:47:51;99053.76;;;10.33;80.13
72096;BME280;59968;51.084;16.748;2023-04-15T04:50:20;99057.19;;;10.30;79.91
72096;BME280;59968;51.084;16.748;2023-04-15T04:52:48;99061.92;;;10.25;79.83
72096;BME280;59968;51.084;16.748;2023-04-15T04:55:17;99062.64;;;10.20;79.59
72096;BME280;59968;51.084;16.748;2023-04-15T04:57:46;99064.13;;;10.15;79.61
72096;BME280;59968;51.084;16.748;2023-04-15T05:00:14;99069.81;;;10.12;79.52
72096;BME280;59968;51.084;16.748;2023-04-15T05:02:44;99075.02;;;10.10;79.41
72096;BME280;59968;51.084;16.748;2023-04-15T05:05:13;99077.31;;;10.09;78.95
72096;BME280;59968;51.084;16.748;2023-04-15T05:07:42;99083.82;;;10.08;78.35
72096;BME280;59968;51.084;16.748;2023-04-15T05:10:10;99085.03;;;10.02;78.23
72096;BME280;59968;51.084;16.748;2023-04-15T05:12:39;99087.19;;;9.95;77.86
72096;BME280;59968;51.084;16.748;2023-04-15T05:15:08;99089.88;;;9.92;77.48
72096;BME280;59968;51.084;16.748;2023-04-15T05:17:36;99085.54;;;9.88;77.02
72096;BME280;59968;51.084;16.748;2023-04-15T05:20:05;99084.44;;;9.82;76.73
72096;BME280;59968;51.084;16.748;2023-04-15T05:22:34;99088.09;;;9.77;76.87
72096;BME280;59968;51.084;16.748;2023-04-15T05:25:03;99094.02;;;9.75;76.43
72096;BME280;59968;51.084;16.748;2023-04-15T05:27:32;99099.41;;;9.72;76.03
72096;BME280;59968;51.084;16.748;2023-04-15T05:30:00;99101.55;;;9.69;75.42
72096;BME280;59968;51.084;16.748;2023-04-15T05:32:28;99098.63;;;9.66;74.93
72096;BME280;59968;51.084;16.748;2023-04-15T05:34:57;99103.35;;;9.63;75.11
72096;BME280;59968;51.084;16.748;2023-04-15T05:37:25;99105.15;;;9.63;75.13
72096;BME280;59968;51.084;16.748;2023-04-15T05:39:54;99101.38;;;9.57;75.03
72096;BME280;59968;51.084;16.748;2023-04-15T05:42:24;99105.82;;;9.53;74.57
72096;BME280;59968;51.084;16.748;2023-04-15T05:44:52;99107.04;;;9.51;74.27
72096;BME280;59968;51.084;16.748;2023-04-15T05:47:21;99113.20;;;9.51;74.46
72096;BME280;59968;51.084;16.748;2023-04-15T05:49:49;99114.13;;;9.47;74.35
72096;BME280;59968;51.084;16.748;2023-04-15T05:52:17;99120.83;;;9.54;74.36
72096;BME280;59968;51.084;16.748;2023-04-15T05:54:46;99125.87;;;9.57;74.40
72096;BME280;59968;51.084;16.748;2023-04-15T05:57:15;99127.35;;;9.59;74.49
72096;BME280;59968;51.084;16.748;2023-04-15T05:59:44;99127.02;;;9.65;74.65
72096;BME280;59968;51.084;16.748;2023-04-15T06:02:12;99133.80;;;9.71;74.73
72096;BME280;59968;51.084;16.748;2023-04-15T06:04:41;99135.65;;;9.73;74.19
72096;BME280;59968;51.084;16.748;2023-04-15T06:07:09;99137.45;;;9.76;73.95
72096;BME280;59968;51.084;16.748;2023-04-15T06:09:38;99135.89;;;9.79;73.79
72096;BME280;59968;51.084;16.748;2023-04-15T06:12:07;99141.21;;;9.85;73.39
72096;BME280;59968;51.084;16.748;2023-04-15T06:14:39;99137.79;;;9.91;73.16
72096;BME280;59968;51.084;16.748;2023-04-15T06:17:08;99145.23;;;10.00;72.99
72096;BME280;59968;51.084;16.748;2023-04-15T06:19:36;99152.35;;;10.06;72.68
72096;BME280;59968;51.084;16.748;2023-04-15T06:22:05;99152.92;;;10.08;72.21
72096;BME280;59968;51.084;16.748;2023-04-15T06:24:34;99156.55;;;10.12;72.04
72096;BME280;59968;51.084;16.748;2023-04-15T06:27:04;99153.58;;;10.14;71.82
72096;BME280;59968;51.084;16.748;2023-04-15T06:29:32;99163.48;;;10.21;71.55
72096;BME280;59968;51.084;16.748;2023-04-15T06:32:01;99163.83;;;10.21;70.98
72096;BME280;59968;51.084;16.748;2023-04-15T06:34:29;99173.76;;;10.18;70.56
72096;BME280;59968;51.084;16.748;2023-04-15T06:36:58;99171.83;;;10.19;70.87
72096;BME280;59968;51.084;16.748;2023-04-15T06:39:28;99182.55;;;10.21;70.45
72096;BME280;59968;51.084;16.748;2023-04-15T06:41:56;99186.65;;;10.21;70.63
72096;BME280;59968;51.084;16.748;2023-04-15T06:44:25;99182.77;;;10.22;71.04
72096;BME280;59968;51.084;16.748;2023-04-15T06:46:54;99186.55;;;10.27;70.79
72096;BME280;59968;51.084;16.748;2023-04-15T06:49:22;99184.52;;;10.31;70.44
72096;BME280;59968;51.084;16.748;2023-04-15T06:51:51;99185.39;;;10.35;70.20
72096;BME280;59968;51.084;16.748;2023-04-15T06:54:20;99182.52;;;10.37;69.61
72096;BME280;59968;51.084;16.748;2023-04-15T06:56:49;99185.29;;;10.37;69.54
72096;BME280;59968;51.084;16.748;2023-04-15T06:59:19;99185.39;;;10.40;69.63
72096;BME280;59968;51.084;16.748;2023-04-15T07:01:48;99188.00;;;10.44;69.54
72096;BME280;59968;51.084;16.748;2023-04-15T07:04:18;99190.70;;;10.48;69.43
72096;BME280;59968;51.084;16.748;2023-04-15T07:06:48;99192.98;;;10.51;69.32
72096;BME280;59968;51.084;16.748;2023-04-15T07:09:19;99195.45;;;10.56;69.40
72096;BME280;59968;51.084;16.748;2023-04-15T07:11:47;99202.33;;;10.60;69.37
72096;BME280;59968;51.084;16.748;2023-04-15T07:14:17;99206.09;;;10.68;69.82
72096;BME280;59968;51.084;16.748;2023-04-15T07:16:46;99203.70;;;10.77;69.79
72096;BME280;59968;51.084;16.748;2023-04-15T07:19:14;99199.03;;;10.85;68.88
72096;BME280;59968;51.084;16.748;2023-04-15T07:21:44;99205.47;;;10.90;68.69
72096;BME280;59968;51.084;16.748;2023-04-15T07:24:13;99210.13;;;10.99;68.35
72096;BME280;59968;51.084;16.748;2023-04-15T07:26:45;99216.70;;;11.10;68.52
72096;BME280;59968;51.084;16.748;2023-04-15T07:29:14;99218.02;;;11.22;68.68
72096;BME280;59968;51.084;16.748;2023-04-15T07:31:44;99217.79;;;11.37;68.85
72096;BME280;59968;51.084;16.748;2023-04-15T07:34:15;99205.89;;;11.48;68.51
72096;BME280;59968;51.084;16.748;2023-04-15T07:36:44;99207.88;;;11.61;68.03
72096;BME280;59968;51.084;16.748;2023-04-15T07:39:14;99213.80;;;11.69;67.00
72096;BME280;59968;51.084;16.748;2023-04-15T07:41:44;99216.89;;;11.73;65.56
72096;BME280;59968;51.084;16.748;2023-04-15T07:44:14;99224.28;;;11.75;64.78
72096;BME280;59968;51.084;16.748;2023-04-15T07:46:43;99229.11;;;11.76;64.29
72096;BME280;59968;51.084;16.748;2023-04-15T07:49:12;99234.73;;;11.79;64.34
72096;BME280;59968;51.084;16.748;2023-04-15T07:51:41;99233.12;;;11.83;64.67
72096;BME280;59968;51.084;16.748;2023-04-15T07:54:11;99238.94;;;11.87;64.14
72096;BME280;59968;51.084;16.748;2023-04-15T07:56:40;99231.71;;;11.83;63.57
72096;BME280;59968;51.084;16.748;2023-04-15T07:59:09;99240.91;;;11.91;63.75
72096;BME280;59968;51.084;16.748;2023-04-15T08:01:38;99240.06;;;11.97;64.07
72096;BME280;59968;51.084;16.748;2023-04-15T08:04:06;99242.67;;;12.04;64.16
72096;BME280;59968;51.084;16.748;2023-04-15T08:06:35;99238.61;;;12.10;63.19
72096;BME280;59968;51.084;16.748;2023-04-15T08:09:07;99235.66;;;12.15;62.91
72096;BME280;59968;51.084;16.748;2023-04-15T08:11:36;99237.99;;;12.21;62.43
72096;BME280;59968;51.084;16.748;2023-04-15T08:14:06;99235.86;;;12.27;62.31
72096;BME280;59968;51.084;16.748;2023-04-15T08:16:35;99237.77;;;12.34;61.91
72096;BME280;59968;51.084;16.748;2023-04-15T08:19:05;99245.17;;;12.39;61.28
72096;BME280;59968;51.084;16.748;2023-04-15T08:21:35;99245.59;;;12.44;60.62
72096;BME280;59968;51.084;16.748;2023-04-15T08:24:04;99244.79;;;12.50;60.83
72096;BME280;59968;51.084;16.748;2023-04-15T08:26:34;99243.12;;;12.57;61.19
72096;BME280;59968;51.084;16.748;2023-04-15T08:29:02;99244.48;;;12.63;60.54
72096;BME280;59968;51.084;16.748;2023-04-15T08:31:32;99243.40;;;12.65;59.97
72096;BME280;59968;51.084;16.748;2023-04-15T08:34:01;99252.16;;;12.68;59.90
72096;BME280;59968;51.084;16.748;2023-04-15T08:36:30;99257.96;;;12.74;60.03
72096;BME280;59968;51.084;16.748;2023-04-15T08:38:59;99259.40;;;12.85;60.15
72096;BME280;59968;51.084;16.748;2023-04-15T08:41:46;99260.29;;;13.03;60.15
72096;BME280;59968;51.084;16.748;2023-04-15T08:44:15;99261.41;;;13.24;60.30
72096;BME280;59968;51.084;16.748;2023-04-15T08:46:45;99262.79;;;13.46;59.82
72096;BME280;59968;51.084;16.748;2023-04-15T08:49:16;99260.84;;;13.72;59.66
72096;BME280;59968;51.084;16.748;2023-04-15T08:51:46;99259.74;;;13.99;59.35
72096;BME280;59968;51.084;16.748;2023-04-15T08:54:15;99263.91;;;14.24;58.94
72096;BME280;59968;51.084;16.748;2023-04-15T08:56:44;99267.08;;;14.45;58.10
72096;BME280;59968;51.084;16.748;2023-04-15T08:59:14;99278.02;;;14.51;57.39
72096;BME280;59968;51.084;16.748;2023-04-15T09:01:43;99280.36;;;14.55;57.23
72096;BME280;59968;51.084;16.748;2023-04-15T09:04:13;99279.23;;;14.57;56.71
72096;BME280;59968;51.084;16.748;2023-04-15T09:06:41;99279.60;;;14.60;57.42
72096;BME280;59968;51.084;16.748;2023-04-15T09:09:11;99282.87;;;14.62;56.60
72096;BME280;59968;51.084;16.748;2023-04-15T09:11:42;99280.67;;;14.65;56.02
72096;BME280;59968;51.084;16.748;2023-04-15T09:14:11;99289.09;;;14.73;55.86
72096;BME280;59968;51.084;16.748;2023-04-15T09:16:58;99290.04;;;14.77;55.01
72096;BME280;59968;51.084;16.748;2023-04-15T09:19:28;99292.83;;;14.75;55.76
72096;BME280;59968;51.084;16.748;2023-04-15T09:21:58;99293.10;;;14.81;55.02
72096;BME280;59968;51.084;16.748;2023-04-15T09:24:36;99290.98;;;14.94;55.41
72096;BME280;59968;51.084;16.748;2023-04-15T09:27:05;99286.67;;;15.12;55.50
72096;BME280;59968;51.084;16.748;2023-04-15T09:29:34;99285.29;;;15.19;54.79
72096;BME280;59968;51.084;16.748;2023-04-15T09:32:12;99287.45;;;15.20;53.59
72096;BME280;59968;51.084;16.748;2023-04-15T09:34:41;99283.02;;;15.25;53.70
72096;BME280;59968;51.084;16.748;2023-04-15T09:37:10;99284.56;;;15.31;53.14
72096;BME280;59968;51.084;16.748;2023-04-15T09:39:58;99288.09;;;15.38;52.89
72096;BME280;59968;51.084;16.748;2023-04-15T09:42:27;99285.61;;;15.53;53.79
72096;BME280;59968;51.084;16.748;2023-04-15T09:45:07;99283.63;;;15.63;52.77
72096;BME280;59968;51.084;16.748;2023-04-15T09:47:36;99286.06;;;15.61;52.54
72096;BME280;59968;51.084;16.748;2023-04-15T09:50:06;99288.70;;;15.67;51.82
72096;BME280;59968;51.084;16.748;2023-04-15T09:52:42;99293.64;;;15.75;51.48
72096;BME280;59968;51.084;16.748;2023-04-15T09:55:17;99297.04;;;15.87;51.12
72096;BME280;59968;51.084;16.748;2023-04-15T09:57:46;99300.45;;;15.87;50.69
72096;BME280;59968;51.084;16.748;2023-04-15T10:00:15;99299.21;;;15.89;51.37
72096;BME280;59968;51.084;16.748;2023-04-15T10:02:45;99299.73;;;15.89;51.52
72096;BME280;59968;51.084;16.748;2023-04-15T10:05:15;99300.27;;;15.80;50.55
72096;BME280;59968;51.084;16.748;2023-04-15T10:07:45;99304.70;;;15.83;51.42
72096;BME280;59968;51.084;16.748;2023-04-15T10:10:14;99308.70;;;15.92;51.36
72096;BME280;59968;51.084;16.748;2023-04-15T10:12:44;99309.57;;;15.95;50.33
72096;BME280;59968;51.084;16.748;2023-04-15T10:15:15;99310.83;;;15.90;50.56
72096;BME280;59968;51.084;16.748;2023-04-15T10:17:46;99309.92;;;15.88;50.67
72096;BME280;59968;51.084;16.748;2023-04-15T10:20:18;99308.06;;;15.96;51.30
72096;BME280;59968;51.084;16.748;2023-04-15T10:22:47;99310.85;;;15.97;51.12
72096;BME280;59968;51.084;16.748;2023-04-15T10:25:16;99313.71;;;15.95;51.26
72096;BME280;59968;51.084;16.748;2023-04-15T10:27:45;99314.23;;;15.96;51.38
72096;BME280;59968;51.084;16.748;2023-04-15T10:30:16;99311.60;;;16.05;50.77
72096;BME280;59968;51.084;16.748;2023-04-15T10:32:47;99310.89;;;16.07;50.63
72096;BME280;59968;51.084;16.748;2023-04-15T10:35:17;99312.91;;;16.05;50.09
72096;BME280;59968;51.084;16.748;2023-04-15T10:37:49;99308.59;;;15.95;50.39
72096;BME280;59968;51.084;16.748;2023-04-15T10:40:26;99307.94;;;15.89;50.51
72096;BME280;59968;51.084;16.748;2023-04-15T10:43:00;99310.30;;;15.94;50.95
72096;BME280;59968;51.084;16.748;2023-04-15T10:45:36;99311.49;;;16.04;50.38
72096;BME280;59968;51.084;16.748;2023-04-15T10:48:06;99315.24;;;16.15;50.49
72096;BME280;59968;51.084;16.748;2023-04-15T10:50:36;99314.55;;;16.27;50.88
72096;BME280;59968;51.084;16.748;2023-04-15T10:53:05;99306.83;;;16.22;50.68
72096;BME280;59968;51.084;16.748;2023-04-15T10:55:34;99315.32;;;16.23;50.30
72096;BME280;59968;51.084;16.748;2023-04-15T10:58:03;99320.71;;;16.13;49.45
72096;BME280;59968;51.084;16.748;2023-04-15T11:00:31;99321.60;;;16.06;50.04
72096;BME280;59968;51.084;16.748;2023-04-15T11:03:06;99318.75;;;16.03;50.19
72096;BME280;59968;51.084;16.748;2023-04-15T11:08:11;99325.21;;;16.06;49.39
72096;BME280;59968;51.084;16.748;2023-04-15T11:15:44;99332.85;;;15.96;48.76
72096;BME280;59968;51.084;16.748;2023-04-15T11:18:18;99337.10;;;15.91;49.13
72096;BME280;59968;51.084;16.748;2023-04-15T11:20:55;99341.71;;;15.88;49.57
72096;BME280;59968;51.084;16.748;2023-04-15T11:26:04;99340.90;;;15.85;48.86
72096;BME280;59968;51.084;16.748;2023-04-15T11:28:38;99350.52;;;15.85;48.48
72096;BME280;59968;51.084;16.748;2023-04-15T11:31:10;99341.98;;;15.74;48.53
72096;BME280;59968;51.084;16.748;2023-04-15T11:33:52;99348.28;;;15.80;48.68
72096;BME280;59968;51.084;16.748;2023-04-15T11:36:25;99348.12;;;15.85;48.82
72096;BME280;59968;51.084;16.748;2023-04-15T11:38:57;99352.29;;;16.02;49.17
72096;BME280;59968;51.084;16.748;2023-04-15T11:41:26;99353.84;;;16.31;49.44
72096;BME280;59968;51.084;16.748;2023-04-15T11:43:55;99359.75;;;16.53;49.34
72096;BME280;59968;51.084;16.748;2023-04-15T11:46:30;99358.90;;;16.63;47.49
72096;BME280;59968;51.084;16.748;2023-04-15T11:48:59;99362.77;;;16.69;47.34
72096;BME280;59968;51.084;16.748;2023-04-15T11:51:32;99362.57;;;16.79;47.85
72096;BME280;59968;51.084;16.748;2023-04-15T11:54:01;99371.56;;;17.08;48.05
72096;BME280;59968;51.084;16.748;2023-04-15T11:56:31;99373.98;;;17.22;47.41
72096;BME280;59968;51.084;16.748;2023-04-15T11:59:00;99368.12;;;17.31;47.72
72096;BME280;59968;51.084;16.748;2023-04-15T12:01:37;99369.81;;;17.45;47.25
72096;BME280;59968;51.084;16.748;2023-04-15T12:04:16;99369.13;;;17.63;46.49
72096;BME280;59968;51.084;16.748;2023-04-15T12:06:52;99368.60;;;17.78;46.32
72096;BME280;59968;51.084;16.748;2023-04-15T12:09:20;99369.98;;;17.85;46.06
72096;BME280;59968;51.084;16.748;2023-04-15T12:11:50;99374.20;;;17.91;45.36
72096;BME280;59968;51.084;16.748;2023-04-15T12:14:31;99376.72;;;17.96;44.02
72096;BME280;59968;51.084;16.748;2023-04-15T12:17:05;99382.04;;;18.02;43.80
72096;BME280;59968;51.084;16.748;2023-04-15T12:19:39;99384.67;;;18.07;43.76
72096;BME280;59968;51.084;16.748;2023-04-15T12:22:16;99387.41;;;18.13;43.95
72096;BME280;59968;51.084;16.748;2023-04-15T12:24:44;99386.33;;;18.17;44.00
72096;BME280;59968;51.084;16.748;2023-04-15T12:27:16;99388.36;;;18.10;43.74
72096;BME280;59968;51.084;16.748;2023-04-15T12:29:44;99392.76;;;18.05;44.02
72096;BME280;59968;51.084;16.748;2023-04-15T12:32:14;99389.90;;;17.93;44.41
72096;BME280;59968;51.084;16.748;2023-04-15T12:34:51;99392.85;;;17.82;44.14
72096;BME280;59968;51.084;16.748;2023-04-15T12:37:20;99393.55;;;17.70;44.41
72096;BME280;59968;51.084;16.748;2023-04-15T12:39:50;99392.71;;;17.59;44.80
72096;BME280;59968;51.084;16.748;2023-04-15T12:42:19;99392.72;;;17.53;44.66
72096;BME280;59968;51.084;16.748;2023-04-15T12:44:48;99392.77;;;17.51;44.35
72096;BME280;59968;51.084;16.748;2023-04-15T12:47:16;99394.30;;;17.48;44.62
72096;BME280;59968;51.084;16.748;2023-04-15T12:49:45;99395.61;;;17.45;44.11
72096;BME280;59968;51.084;16.748;2023-04-15T12:52:14;99393.17;;;17.40;43.78
72096;BME280;59968;51.084;16.748;2023-04-15T12:54:44;99395.29;;;17.35;44.63
72096;BME280;59968;51.084;16.748;2023-04-15T12:57:13;99395.25;;;17.35;45.01
72096;BME280;59968;51.084;16.748;2023-04-15T12:59:42;99398.45;;;17.37;44.89
72096;BME280;59968;51.084;16.748;2023-04-15T13:02:11;99395.38;;;17.30;44.65
72096;BME280;59968;51.084;16.748;2023-04-15T13:04:41;99393.75;;;17.29;44.91
72096;BME280;59968;51.084;16.748;2023-04-15T13:07:09;99397.10;;;17.29;44.79
72096;BME280;59968;51.084;16.748;2023-04-15T13:09:42;99399.29;;;17.28;44.88
72096;BME280;59968;51.084;16.748;2023-04-15T13:12:11;99399.46;;;17.22;44.81
72096;BME280;59968;51.084;16.748;2023-04-15T13:14:41;99400.23;;;17.18;44.73